sensor_id;sensor_type;location;lat;lon;timestamp;P1;durP1;ratioP1;P2;durP2;ratioP2
25525;SDS011;13424;48.424;11.258;2024-02-21T00:00:15;20.08;;;5.40;;
25525;SDS011;13424;48.424;11.258;2024-02-21T00:02:42;14.13;;;4.85;;
25525;SDS011;13424;48.424;11.258;2024-02-21T00:05:08;11.57;;;5.15;;
25525;SDS011;13424;48.424;11.258;2024-02-21T00:07:34;8.55;;;4.40;;
25525;SDS011;13424;48.424;11.258;2024-02-21T00:10:00;9.55;;;4.35;;
25525;SDS011;13424;48.424;11.258;2024-02-21T00:12:26;11.82;;;4.70;;
25525;SDS011;13424;48.424;11.258;2024-02-21T00:14:52;8.98;;;4.57;;
25525;SDS011;13424;48.424;11.258;2024-02-21T00:17:18;12.68;;;5.15;;
25525;SDS011;13424;48.424;11.258;2024-02-21T00:19:44;17.65;;;4.53;;
25525;SDS011;13424;48.424;11.258;2024-02-21T00:22:10;11.77;;;6.55;;
25525;SDS011;13424;48.424;11.258;2024-02-21T00:24:36;12.27;;;4.63;;
25525;SDS011;13424;48.424;11.258;2024-02-21T00:27:02;13.07;;;4.85;;
25525;SDS011;13424;48.424;11.258;2024-02-21T00:29:29;13.25;;;4.97;;
25525;SDS011;13424;48.424;11.258;2024-02-21T00:31:55;11.80;;;6.18;;
25525;SDS011;13424;48.424;11.258;2024-02-21T00:34:21;11.68;;;5.20;;
25525;SDS011;13424;48.424;11.258;2024-02-21T00:36:47;9.75;;;4.57;;
25525;SDS011;13424;48.424;11.258;2024-02-21T00:39:13;7.97;;;4.30;;
25525;SDS011;13424;48.424;11.258;2024-02-21T00:41:39;11.43;;;4.95;;
25525;SDS011;13424;48.424;11.258;2024-02-21T00:44:05;13.32;;;4.70;;
25525;SDS011;13424;48.424;11.258;2024-02-21T00:46:31;11.95;;;4.80;;
25525;SDS011;13424;48.424;11.258;2024-02-21T00:48:57;13.43;;;4.85;;
25525;SDS011;13424;48.424;11.258;2024-02-21T00:51:23;10.02;;;5.13;;
25525;SDS011;13424;48.424;11.258;2024-02-21T00:53:49;10.80;;;4.70;;
25525;SDS011;13424;48.424;11.258;2024-02-21T00:56:16;11.00;;;4.32;;
25525;SDS011;13424;48.424;11.258;2024-02-21T00:58:42;9.93;;;4.68;;
25525;SDS011;13424;48.424;11.258;2024-02-21T01:01:07;12.25;;;4.90;;
25525;SDS011;13424;48.424;11.258;2024-02-21T01:03:33;8.07;;;4.15;;
25525;SDS011;13424;48.424;11.258;2024-02-21T01:05:59;12.70;;;4.57;;
25525;SDS011;13424;48.424;11.258;2024-02-21T01:08:25;17.23;;;5.55;;
25525;SDS011;13424;48.424;11.258;2024-02-21T01:10:51;11.70;;;4.80;;
25525;SDS011;13424;48.424;11.258;2024-02-21T01:13:17;13.85;;;4.85;;
25525;SDS011;13424;48.424;11.258;2024-02-21T01:15:43;13.25;;;4.63;;
25525;SDS011;13424;48.424;11.258;2024-02-21T01:18:09;10.05;;;4.50;;
25525;SDS011;13424;48.424;11.258;2024-02-21T01:20:35;14.43;;;4.32;;
25525;SDS011;13424;48.424;11.258;2024-02-21T01:23:01;14.55;;;5.63;;
25525;SDS011;13424;48.424;11.258;2024-02-21T01:25:27;12.63;;;4.80;;
25525;SDS011;13424;48.424;11.258;2024-02-21T01:27:53;7.47;;;4.95;;
25525;SDS011;13424;48.424;11.258;2024-02-21T01:30:19;10.52;;;4.43;;
25525;SDS011;13424;48.424;11.258;2024-02-21T01:32:45;10.40;;;4.97;;
25525;SDS011;13424;48.424;11.258;2024-02-21T01:35:11;10.38;;;5.00;;
25525;SDS011;13424;48.424;11.258;2024-02-21T01:37:37;7.97;;;3.92;;
25525;SDS011;13424;48.424;11.258;2024-02-21T01:40:03;8.30;;;4.60;;
25525;SDS011;13424;48.424;11.258;2024-02-21T01:42:30;12.85;;;4.60;;
25525;SDS011;13424;48.424;11.258;2024-02-21T01:44:59;11.40;;;5.18;;
25525;SDS011;13424;48.424;11.258;2024-02-21T01:47:25;13.73;;;5.78;;
25525;SDS011;13424;48.424;11.258;2024-02-21T01:49:51;11.07;;;5.32;;
25525;SDS011;13424;48.424;11.258;2024-02-21T01:52:17;12.75;;;4.80;;
25525;SDS011;13424;48.424;11.258;2024-02-21T01:54:44;8.50;;;4.35;;
25525;SDS011;13424;48.424;11.258;2024-02-21T01:57:11;10.90;;;4.55;;
25525;SDS011;13424;48.424;11.258;2024-02-21T01:59:38;12.93;;;4.47;;
25525;SDS011;13424;48.424;11.258;2024-02-21T02:02:04;13.15;;;4.25;;
25525;SDS011;13424;48.424;11.258;2024-02-21T02:04:30;16.02;;;4.80;;
25525;SDS011;13424;48.424;11.258;2024-02-21T02:06:57;10.05;;;5.32;;
25525;SDS011;13424;48.424;11.258;2024-02-21T02:09:27;8.30;;;4.03;;
25525;SDS011;13424;48.424;11.258;2024-02-21T02:11:53;8.85;;;4.53;;
25525;SDS011;13424;48.424;11.258;2024-02-21T02:14:20;9.05;;;3.65;;
25525;SDS011;13424;48.424;11.258;2024-02-21T02:16:46;15.80;;;4.90;;
25525;SDS011;13424;48.424;11.258;2024-02-21T02:19:13;8.40;;;4.10;;
25525;SDS011;13424;48.424;11.258;2024-02-21T02:21:44;13.15;;;4.00;;
25525;SDS011;13424;48.424;11.258;2024-02-21T02:24:19;12.90;;;3.97;;
25525;SDS011;13424;48.424;11.258;2024-02-21T02:26:46;7.25;;;4.13;;
25525;SDS011;13424;48.424;11.258;2024-02-21T02:29:12;8.45;;;3.70;;
25525;SDS011;13424;48.424;11.258;2024-02-21T02:31:38;8.45;;;3.65;;
25525;SDS011;13424;48.424;11.258;2024-02-21T02:34:04;10.82;;;3.45;;
25525;SDS011;13424;48.424;11.258;2024-02-21T02:36:32;8.00;;;3.30;;
25525;SDS011;13424;48.424;11.258;2024-02-21T02:38:59;6.05;;;3.17;;
25525;SDS011;13424;48.424;11.258;2024-02-21T02:41:25;14.30;;;4.85;;
25525;SDS011;13424;48.424;11.258;2024-02-21T02:43:51;7.55;;;4.45;;
25525;SDS011;13424;48.424;11.258;2024-02-21T02:46:17;7.45;;;3.67;;
25525;SDS011;13424;48.424;11.258;2024-02-21T02:48:43;10.90;;;3.75;;
25525;SDS011;13424;48.424;11.258;2024-02-21T02:51:10;6.15;;;4.00;;
25525;SDS011;13424;48.424;11.258;2024-02-21T02:53:36;6.75;;;3.28;;
25525;SDS011;13424;48.424;11.258;2024-02-21T02:56:02;12.13;;;4.30;;
25525;SDS011;13424;48.424;11.258;2024-02-21T02:58:28;6.70;;;3.63;;
25525;SDS011;13424;48.424;11.258;2024-02-21T03:00:54;9.63;;;3.78;;
25525;SDS011;13424;48.424;11.258;2024-02-21T03:03:20;11.95;;;4.50;;
25525;SDS011;13424;48.424;11.258;2024-02-21T03:05:46;5.68;;;4.07;;
25525;SDS011;13424;48.424;11.258;2024-02-21T03:08:12;8.38;;;4.28;;
25525;SDS011;13424;48.424;11.258;2024-02-21T03:10:38;12.95;;;3.85;;
25525;SDS011;13424;48.424;11.258;2024-02-21T03:13:06;10.95;;;3.97;;
25525;SDS011;13424;48.424;11.258;2024-02-21T03:15:41;7.05;;;3.90;;
25525;SDS011;13424;48.424;11.258;2024-02-21T03:18:07;7.88;;;4.05;;
25525;SDS011;13424;48.424;11.258;2024-02-21T03:20:34;9.60;;;3.90;;
25525;SDS011;13424;48.424;11.258;2024-02-21T03:23:00;7.15;;;3.83;;
25525;SDS011;13424;48.424;11.258;2024-02-21T03:25:26;9.80;;;3.90;;
25525;SDS011;13424;48.424;11.258;2024-02-21T03:27:52;15.38;;;3.70;;
25525;SDS011;13424;48.424;11.258;2024-02-21T03:30:18;11.38;;;4.47;;
25525;SDS011;13424;48.424;11.258;2024-02-21T03:32:43;7.88;;;3.72;;
25525;SDS011;13424;48.424;11.258;2024-02-21T03:35:09;7.40;;;4.13;;
25525;SDS011;13424;48.424;11.258;2024-02-21T03:37:35;12.52;;;3.85;;
25525;SDS011;13424;48.424;11.258;2024-02-21T03:40:01;11.50;;;4.32;;
25525;SDS011;13424;48.424;11.258;2024-02-21T03:42:28;10.68;;;4.03;;
25525;SDS011;13424;48.424;11.258;2024-02-21T03:44:56;11.18;;;4.28;;
25525;SDS011;13424;48.424;11.258;2024-02-21T03:47:28;9.73;;;3.97;;
25525;SDS011;13424;48.424;11.258;2024-02-21T03:49:54;12.70;;;4.13;;
25525;SDS011;13424;48.424;11.258;2024-02-21T03:52:20;7.28;;;3.45;;
25525;SDS011;13424;48.424;11.258;2024-02-21T03:54:46;5.82;;;4.03;;
25525;SDS011;13424;48.424;11.258;2024-02-21T03:57:12;10.85;;;4.05;;
25525;SDS011;13424;48.424;11.258;2024-02-21T03:59:38;8.82;;;3.90;;
25525;SDS011;13424;48.424;11.258;2024-02-21T04:02:05;11.63;;;4.03;;
25525;SDS011;13424;48.424;11.258;2024-02-21T04:04:35;10.93;;;4.13;;
25525;SDS011;13424;48.424;11.258;2024-02-21T04:07:04;10.35;;;4.50;;
25525;SDS011;13424;48.424;11.258;2024-02-21T04:09:33;6.60;;;3.40;;
25525;SDS011;13424;48.424;11.258;2024-02-21T04:12:00;8.50;;;4.15;;
25525;SDS011;13424;48.424;11.258;2024-02-21T04:14:26;15.48;;;4.07;;
25525;SDS011;13424;48.424;11.258;2024-02-21T04:20:24;5.75;;;3.67;;
25525;SDS011;13424;48.424;11.258;2024-02-21T04:22:56;11.30;;;4.38;;
25525;SDS011;13424;48.424;11.258;2024-02-21T04:25:22;7.40;;;3.67;;
25525;SDS011;13424;48.424;11.258;2024-02-21T04:27:58;7.75;;;4.05;;
25525;SDS011;13424;48.424;11.258;2024-02-21T04:30:23;8.80;;;4.07;;
25525;SDS011;13424;48.424;11.258;2024-02-21T04:32:49;8.48;;;3.70;;
25525;SDS011;13424;48.424;11.258;2024-02-21T04:35:16;6.28;;;3.33;;
25525;SDS011;13424;48.424;11.258;2024-02-21T04:37:42;5.30;;;3.42;;
25525;SDS011;13424;48.424;11.258;2024-02-21T04:40:11;12.73;;;3.65;;
25525;SDS011;13424;48.424;11.258;2024-02-21T04:42:37;5.63;;;3.40;;
25525;SDS011;13424;48.424;11.258;2024-02-21T04:45:03;5.68;;;3.13;;
25525;SDS011;13424;48.424;11.258;2024-02-21T04:47:30;7.70;;;3.42;;
25525;SDS011;13424;48.424;11.258;2024-02-21T04:49:56;5.38;;;3.15;;
25525;SDS011;13424;48.424;11.258;2024-02-21T04:52:22;6.28;;;2.97;;
25525;SDS011;13424;48.424;11.258;2024-02-21T04:54:48;14.25;;;3.45;;
25525;SDS011;13424;48.424;11.258;2024-02-21T04:57:14;10.43;;;3.38;;
25525;SDS011;13424;48.424;11.258;2024-02-21T04:59:48;8.40;;;2.95;;
25525;SDS011;13424;48.424;11.258;2024-02-21T05:02:14;5.90;;;2.90;;
25525;SDS011;13424;48.424;11.258;2024-02-21T05:04:41;5.82;;;3.20;;
25525;SDS011;13424;48.424;11.258;2024-02-21T05:07:08;8.05;;;2.78;;
25525;SDS011;13424;48.424;11.258;2024-02-21T05:09:36;9.23;;;2.65;;
25525;SDS011;13424;48.424;11.258;2024-02-21T05:12:02;8.07;;;2.90;;
25525;SDS011;13424;48.424;11.258;2024-02-21T05:14:28;7.38;;;2.40;;
25525;SDS011;13424;48.424;11.258;2024-02-21T05:16:55;6.88;;;3.17;;
25525;SDS011;13424;48.424;11.258;2024-02-21T05:19:21;7.05;;;2.80;;
25525;SDS011;13424;48.424;11.258;2024-02-21T05:21:47;3.33;;;2.60;;
25525;SDS011;13424;48.424;11.258;2024-02-21T05:24:13;4.93;;;2.60;;
25525;SDS011;13424;48.424;11.258;2024-02-21T05:26:39;12.82;;;2.75;;
25525;SDS011;13424;48.424;11.258;2024-02-21T05:29:05;6.25;;;2.63;;
25525;SDS011;13424;48.424;11.258;2024-02-21T05:34:19;5.15;;;2.97;;
25525;SDS011;13424;48.424;11.258;2024-02-21T05:36:45;5.13;;;2.30;;
25525;SDS011;13424;48.424;11.258;2024-02-21T05:39:18;3.83;;;2.28;;
25525;SDS011;13424;48.424;11.258;2024-02-21T05:41:44;7.95;;;3.00;;
25525;SDS011;13424;48.424;11.258;2024-02-21T05:44:10;6.20;;;2.60;;
25525;SDS011;13424;48.424;11.258;2024-02-21T05:46:37;8.93;;;2.05;;
25525;SDS011;13424;48.424;11.258;2024-02-21T05:49:03;2.55;;;2.13;;
25525;SDS011;13424;48.424;11.258;2024-02-21T05:51:32;3.22;;;2.40;;
25525;SDS011;13424;48.424;11.258;2024-02-21T05:57:22;3.70;;;2.28;;
25525;SDS011;13424;48.424;11.258;2024-02-21T05:59:48;8.07;;;2.60;;
25525;SDS011;13424;48.424;11.258;2024-02-21T06:02:14;2.55;;;1.95;;
25525;SDS011;13424;48.424;11.258;2024-02-21T06:04:40;4.45;;;2.53;;
25525;SDS011;13424;48.424;11.258;2024-02-21T06:07:08;3.67;;;2.50;;
25525;SDS011;13424;48.424;11.258;2024-02-21T06:09:34;6.82;;;2.63;;
25525;SDS011;13424;48.424;11.258;2024-02-21T06:12:00;8.18;;;2.33;;
25525;SDS011;13424;48.424;11.258;2024-02-21T06:14:26;6.80;;;2.45;;
25525;SDS011;13424;48.424;11.258;2024-02-21T06:16:52;9.57;;;2.50;;
25525;SDS011;13424;48.424;11.258;2024-02-21T06:19:18;3.45;;;1.98;;
25525;SDS011;13424;48.424;11.258;2024-02-21T06:21:44;2.88;;;2.20;;
25525;SDS011;13424;48.424;11.258;2024-02-21T06:24:09;3.92;;;1.83;;
25525;SDS011;13424;48.424;11.258;2024-02-21T06:26:37;6.07;;;2.33;;
25525;SDS011;13424;48.424;11.258;2024-02-21T06:29:05;6.22;;;1.80;;
25525;SDS011;13424;48.424;11.258;2024-02-21T06:31:35;7.22;;;2.10;;
25525;SDS011;13424;48.424;11.258;2024-02-21T06:34:01;6.30;;;2.40;;
25525;SDS011;13424;48.424;11.258;2024-02-21T06:36:27;4.78;;;2.05;;
25525;SDS011;13424;48.424;11.258;2024-02-21T06:38:53;3.40;;;1.67;;
25525;SDS011;13424;48.424;11.258;2024-02-21T06:41:19;6.65;;;2.58;;
25525;SDS011;13424;48.424;11.258;2024-02-21T06:43:46;9.50;;;2.20;;
25525;SDS011;13424;48.424;11.258;2024-02-21T06:46:26;6.55;;;2.20;;
25525;SDS011;13424;48.424;11.258;2024-02-21T06:48:56;2.75;;;1.58;;
25525;SDS011;13424;48.424;11.258;2024-02-21T06:51:22;5.57;;;1.88;;
25525;SDS011;13424;48.424;11.258;2024-02-21T06:53:48;4.40;;;2.53;;
25525;SDS011;13424;48.424;11.258;2024-02-21T06:56:14;4.25;;;1.98;;
25525;SDS011;13424;48.424;11.258;2024-02-21T06:58:40;3.80;;;2.20;;
25525;SDS011;13424;48.424;11.258;2024-02-21T07:01:06;4.05;;;1.58;;
25525;SDS011;13424;48.424;11.258;2024-02-21T07:03:33;2.95;;;1.88;;
25525;SDS011;13424;48.424;11.258;2024-02-21T07:05:59;7.75;;;2.28;;
25525;SDS011;13424;48.424;11.258;2024-02-21T07:08:25;7.40;;;2.10;;
25525;SDS011;13424;48.424;11.258;2024-02-21T07:10:51;5.60;;;2.17;;
25525;SDS011;13424;48.424;11.258;2024-02-21T07:13:17;3.45;;;2.28;;
25525;SDS011;13424;48.424;11.258;2024-02-21T07:15:43;5.75;;;2.03;;
25525;SDS011;13424;48.424;11.258;2024-02-21T07:21:50;5.20;;;2.00;;
25525;SDS011;13424;48.424;11.258;2024-02-21T07:24:16;6.50;;;2.20;;
25525;SDS011;13424;48.424;11.258;2024-02-21T07:26:52;5.25;;;2.65;;
25525;SDS011;13424;48.424;11.258;2024-02-21T07:29:18;3.35;;;1.90;;
25525;SDS011;13424;48.424;11.258;2024-02-21T07:31:44;6.18;;;2.15;;
25525;SDS011;13424;48.424;11.258;2024-02-21T07:34:10;5.00;;;2.10;;
25525;SDS011;13424;48.424;11.258;2024-02-21T07:36:36;6.10;;;2.22;;
25525;SDS011;13424;48.424;11.258;2024-02-21T07:39:04;6.30;;;1.75;;
25525;SDS011;13424;48.424;11.258;2024-02-21T07:41:30;4.65;;;1.70;;
25525;SDS011;13424;48.424;11.258;2024-02-21T07:43:56;2.70;;;1.80;;
25525;SDS011;13424;48.424;11.258;2024-02-21T07:46:23;2.35;;;1.90;;
25525;SDS011;13424;48.424;11.258;2024-02-21T07:48:50;3.95;;;2.38;;
25525;SDS011;13424;48.424;11.258;2024-02-21T07:51:16;2.83;;;1.77;;
25525;SDS011;13424;48.424;11.258;2024-02-21T07:53:52;6.43;;;2.05;;
25525;SDS011;13424;48.424;11.258;2024-02-21T07:56:18;4.72;;;1.98;;
25525;SDS011;13424;48.424;11.258;2024-02-21T07:58:44;4.45;;;1.90;;
25525;SDS011;13424;48.424;11.258;2024-02-21T08:01:10;10.60;;;2.58;;
25525;SDS011;13424;48.424;11.258;2024-02-21T08:03:36;3.65;;;1.90;;
25525;SDS011;13424;48.424;11.258;2024-02-21T08:06:03;7.18;;;2.40;;
25525;SDS011;13424;48.424;11.258;2024-02-21T08:08:29;2.95;;;1.65;;
25525;SDS011;13424;48.424;11.258;2024-02-21T08:10:55;5.20;;;2.00;;
25525;SDS011;13424;48.424;11.258;2024-02-21T08:13:21;4.35;;;2.38;;
25525;SDS011;13424;48.424;11.258;2024-02-21T08:15:47;4.22;;;2.25;;
25525;SDS011;13424;48.424;11.258;2024-02-21T08:18:13;11.15;;;2.20;;
25525;SDS011;13424;48.424;11.258;2024-02-21T08:20:39;3.38;;;2.08;;
25525;SDS011;13424;48.424;11.258;2024-02-21T08:23:05;6.60;;;2.08;;
25525;SDS011;13424;48.424;11.258;2024-02-21T08:25:31;4.55;;;1.92;;
25525;SDS011;13424;48.424;11.258;2024-02-21T08:27:58;7.20;;;2.17;;
25525;SDS011;13424;48.424;11.258;2024-02-21T08:30:25;5.22;;;2.25;;
25525;SDS011;13424;48.424;11.258;2024-02-21T08:32:51;5.47;;;1.98;;
25525;SDS011;13424;48.424;11.258;2024-02-21T08:35:19;4.53;;;2.08;;
25525;SDS011;13424;48.424;11.258;2024-02-21T08:37:47;5.97;;;1.75;;
25525;SDS011;13424;48.424;11.258;2024-02-21T08:40:14;3.53;;;1.85;;
25525;SDS011;13424;48.424;11.258;2024-02-21T08:45:10;6.82;;;2.67;;
25525;SDS011;13424;48.424;11.258;2024-02-21T08:50:55;8.18;;;2.67;;
25525;SDS011;13424;48.424;11.258;2024-02-21T08:53:21;5.57;;;1.85;;
25525;SDS011;13424;48.424;11.258;2024-02-21T08:55:47;4.63;;;1.98;;
25525;SDS011;13424;48.424;11.258;2024-02-21T08:58:13;2.72;;;1.85;;
25525;SDS011;13424;48.424;11.258;2024-02-21T09:00:40;4.57;;;2.17;;
25525;SDS011;13424;48.424;11.258;2024-02-21T09:03:06;2.88;;;2.00;;
25525;SDS011;13424;48.424;11.258;2024-02-21T09:05:32;4.60;;;1.98;;
25525;SDS011;13424;48.424;11.258;2024-02-21T09:08:00;3.72;;;1.90;;
25525;SDS011;13424;48.424;11.258;2024-02-21T09:10:26;4.60;;;2.20;;
25525;SDS011;13424;48.424;11.258;2024-02-21T09:12:52;4.60;;;2.28;;
25525;SDS011;13424;48.424;11.258;2024-02-21T09:15:18;3.25;;;2.10;;
25525;SDS011;13424;48.424;11.258;2024-02-21T09:17:44;5.60;;;2.05;;
25525;SDS011;13424;48.424;11.258;2024-02-21T09:20:10;4.82;;;2.90;;
25525;SDS011;13424;48.424;11.258;2024-02-21T09:22:37;4.40;;;2.22;;
25525;SDS011;13424;48.424;11.258;2024-02-21T09:25:05;3.75;;;1.85;;
25525;SDS011;13424;48.424;11.258;2024-02-21T09:27:32;6.63;;;2.60;;
25525;SDS011;13424;48.424;11.258;2024-02-21T09:29:58;4.53;;;2.47;;
25525;SDS011;13424;48.424;11.258;2024-02-21T09:32:25;6.25;;;2.15;;
25525;SDS011;13424;48.424;11.258;2024-02-21T09:34:51;3.70;;;2.10;;
25525;SDS011;13424;48.424;11.258;2024-02-21T09:37:17;8.63;;;2.65;;
25525;SDS011;13424;48.424;11.258;2024-02-21T09:39:43;4.43;;;1.75;;
25525;SDS011;13424;48.424;11.258;2024-02-21T09:42:11;2.92;;;1.88;;
25525;SDS011;13424;48.424;11.258;2024-02-21T09:44:38;2.75;;;1.92;;
25525;SDS011;13424;48.424;11.258;2024-02-21T09:47:15;5.57;;;2.00;;
25525;SDS011;13424;48.424;11.258;2024-02-21T09:49:49;3.40;;;1.90;;
25525;SDS011;13424;48.424;11.258;2024-02-21T09:52:17;6.30;;;2.15;;
25525;SDS011;13424;48.424;11.258;2024-02-21T09:54:45;5.57;;;2.67;;
25525;SDS011;13424;48.424;11.258;2024-02-21T09:57:14;5.93;;;2.05;;
25525;SDS011;13424;48.424;11.258;2024-02-21T09:59:41;4.07;;;2.20;;
25525;SDS011;13424;48.424;11.258;2024-02-21T10:02:07;4.35;;;2.00;;
25525;SDS011;13424;48.424;11.258;2024-02-21T10:04:33;5.05;;;2.00;;
25525;SDS011;13424;48.424;11.258;2024-02-21T10:06:59;4.32;;;2.38;;
25525;SDS011;13424;48.424;11.258;2024-02-21T10:09:27;4.13;;;1.90;;
25525;SDS011;13424;48.424;11.258;2024-02-21T10:11:54;4.20;;;1.77;;
25525;SDS011;13424;48.424;11.258;2024-02-21T10:14:37;2.78;;;1.83;;
25525;SDS011;13424;48.424;11.258;2024-02-21T10:17:04;3.90;;;1.85;;
25525;SDS011;13424;48.424;11.258;2024-02-21T10:19:34;4.32;;;2.00;;
25525;SDS011;13424;48.424;11.258;2024-02-21T10:22:05;3.85;;;1.90;;
25525;SDS011;13424;48.424;11.258;2024-02-21T10:24:36;5.88;;;1.95;;
25525;SDS011;13424;48.424;11.258;2024-02-21T10:31:00;3.53;;;1.83;;
25525;SDS011;13424;48.424;11.258;2024-02-21T10:33:26;2.78;;;2.10;;
25525;SDS011;13424;48.424;11.258;2024-02-21T10:35:53;5.28;;;1.83;;
25525;SDS011;13424;48.424;11.258;2024-02-21T10:38:19;4.47;;;2.00;;
25525;SDS011;13424;48.424;11.258;2024-02-21T10:40:46;3.22;;;1.45;;
25525;SDS011;13424;48.424;11.258;2024-02-21T10:43:14;3.70;;;1.67;;
25525;SDS011;13424;48.424;11.258;2024-02-21T10:45:42;3.10;;;2.00;;
25525;SDS011;13424;48.424;11.258;2024-02-21T10:48:08;1.88;;;1.65;;
25525;SDS011;13424;48.424;11.258;2024-02-21T10:50:57;3.97;;;1.88;;
25525;SDS011;13424;48.424;11.258;2024-02-21T10:56:37;5.10;;;1.92;;
25525;SDS011;13424;48.424;11.258;2024-02-21T10:59:07;3.35;;;1.73;;
25525;SDS011;13424;48.424;11.258;2024-02-21T11:01:33;1.67;;;1.38;;
25525;SDS011;13424;48.424;11.258;2024-02-21T11:04:03;3.08;;;1.33;;
25525;SDS011;13424;48.424;11.258;2024-02-21T11:06:35;3.90;;;1.45;;
25525;SDS011;13424;48.424;11.258;2024-02-21T11:09:09;2.88;;;1.40;;
25525;SDS011;13424;48.424;11.258;2024-02-21T11:11:38;4.43;;;1.25;;
25525;SDS011;13424;48.424;11.258;2024-02-21T11:14:17;1.85;;;1.42;;
25525;SDS011;13424;48.424;11.258;2024-02-21T11:16:45;2.00;;;1.52;;
25525;SDS011;13424;48.424;11.258;2024-02-21T11:19:27;1.85;;;1.35;;
25525;SDS011;13424;48.424;11.258;2024-02-21T11:21:56;3.08;;;1.98;;
25525;SDS011;13424;48.424;11.258;2024-02-21T11:24:29;2.15;;;1.40;;
25525;SDS011;13424;48.424;11.258;2024-02-21T11:27:11;2.58;;;1.40;;
25525;SDS011;13424;48.424;11.258;2024-02-21T11:29:54;1.40;;;1.30;;
25525;SDS011;13424;48.424;11.258;2024-02-21T11:32:27;2.88;;;1.63;;
25525;SDS011;13424;48.424;11.258;2024-02-21T11:34:55;2.47;;;1.33;;
25525;SDS011;13424;48.424;11.258;2024-02-21T11:37:27;2.05;;;1.20;;
25525;SDS011;13424;48.424;11.258;2024-02-21T11:39:59;2.15;;;1.40;;
25525;SDS011;13424;48.424;11.258;2024-02-21T11:42:26;3.53;;;2.00;;
25525;SDS011;13424;48.424;11.258;2024-02-21T11:44:54;3.20;;;1.73;;
25525;SDS011;13424;48.424;11.258;2024-02-21T11:47:24;3.47;;;1.27;;
25525;SDS011;13424;48.424;11.258;2024-02-21T11:49:53;3.10;;;1.92;;
25525;SDS011;13424;48.424;11.258;2024-02-21T11:52:24;2.53;;;1.67;;
25525;SDS011;13424;48.424;11.258;2024-02-21T11:54:51;1.92;;;1.38;;
25525;SDS011;13424;48.424;11.258;2024-02-21T11:57:18;2.78;;;2.15;;
25525;SDS011;13424;48.424;11.258;2024-02-21T11:59:44;1.98;;;1.27;;
25525;SDS011;13424;48.424;11.258;2024-02-21T12:02:11;2.33;;;1.60;;
25525;SDS011;13424;48.424;11.258;2024-02-21T12:04:39;3.40;;;2.17;;
25525;SDS011;13424;48.424;11.258;2024-02-21T12:07:05;1.70;;;1.40;;
25525;SDS011;13424;48.424;11.258;2024-02-21T12:09:31;4.60;;;1.55;;
25525;SDS011;13424;48.424;11.258;2024-02-21T12:12:03;3.63;;;1.60;;
25525;SDS011;13424;48.424;11.258;2024-02-21T12:14:32;4.95;;;1.73;;
25525;SDS011;13424;48.424;11.258;2024-02-21T12:17:00;2.35;;;1.40;;
25525;SDS011;13424;48.424;11.258;2024-02-21T12:19:32;2.47;;;1.20;;
25525;SDS011;13424;48.424;11.258;2024-02-21T12:21:59;3.00;;;1.23;;
25525;SDS011;13424;48.424;11.258;2024-02-21T12:24:27;1.27;;;1.17;;
25525;SDS011;13424;48.424;11.258;2024-02-21T12:26:55;2.72;;;1.10;;
25525;SDS011;13424;48.424;11.258;2024-02-21T12:29:24;3.97;;;1.70;;
25525;SDS011;13424;48.424;11.258;2024-02-21T12:31:50;1.67;;;1.15;;
25525;SDS011;13424;48.424;11.258;2024-02-21T12:34:17;0.50;;;0.50;;
25525;SDS011;13424;48.424;11.258;2024-02-21T12:36:44;2.72;;;0.73;;
25525;SDS011;13424;48.424;11.258;2024-02-21T12:39:14;1.35;;;0.82;;
25525;SDS011;13424;48.424;11.258;2024-02-21T12:41:42;0.65;;;0.55;;
25525;SDS011;13424;48.424;11.258;2024-02-21T12:44:09;2.67;;;0.70;;
25525;SDS011;13424;48.424;11.258;2024-02-21T12:46:39;2.13;;;1.00;;
25525;SDS011;13424;48.424;11.258;2024-02-21T12:49:05;0.90;;;0.90;;
25525;SDS011;13424;48.424;11.258;2024-02-21T12:51:33;1.52;;;1.05;;
25525;SDS011;13424;48.424;11.258;2024-02-21T12:54:00;1.85;;;1.00;;
25525;SDS011;13424;48.424;11.258;2024-02-21T12:56:28;2.00;;;0.73;;
25525;SDS011;13424;48.424;11.258;2024-02-21T12:58:56;0.60;;;0.60;;
25525;SDS011;13424;48.424;11.258;2024-02-21T13:01:22;6.43;;;0.80;;
25525;SDS011;13424;48.424;11.258;2024-02-21T13:07:39;0.63;;;0.63;;
25525;SDS011;13424;48.424;11.258;2024-02-21T13:10:06;2.92;;;0.77;;
25525;SDS011;13424;48.424;11.258;2024-02-21T13:12:33;0.90;;;0.77;;
25525;SDS011;13424;48.424;11.258;2024-02-21T13:14:59;1.45;;;0.95;;
25525;SDS011;13424;48.424;11.258;2024-02-21T13:17:25;0.90;;;0.77;;
25525;SDS011;13424;48.424;11.258;2024-02-21T13:19:55;0.80;;;0.40;;
25525;SDS011;13424;48.424;11.258;2024-02-21T13:22:21;3.33;;;0.70;;
25525;SDS011;13424;48.424;11.258;2024-02-21T13:28:41;2.20;;;0.85;;
25525;SDS011;13424;48.424;11.258;2024-02-21T13:31:07;0.65;;;0.65;;
25525;SDS011;13424;48.424;11.258;2024-02-21T13:33:33;4.70;;;0.73;;
25525;SDS011;13424;48.424;11.258;2024-02-21T13:35:59;1.70;;;0.60;;
25525;SDS011;13424;48.424;11.258;2024-02-21T13:38:27;1.58;;;0.70;;
25525;SDS011;13424;48.424;11.258;2024-02-21T13:40:53;0.63;;;0.55;;
25525;SDS011;13424;48.424;11.258;2024-02-21T13:43:19;0.50;;;0.40;;
25525;SDS011;13424;48.424;11.258;2024-02-21T13:45:58;0.52;;;0.52;;
25525;SDS011;13424;48.424;11.258;2024-02-21T13:50:52;1.67;;;0.77;;
25525;SDS011;13424;48.424;11.258;2024-02-21T13:53:18;2.30;;;0.50;;
25525;SDS011;13424;48.424;11.258;2024-02-21T13:58:58;1.08;;;0.60;;
25525;SDS011;13424;48.424;11.258;2024-02-21T14:01:27;1.80;;;0.57;;
25525;SDS011;13424;48.424;11.258;2024-02-21T14:03:57;1.42;;;0.80;;
25525;SDS011;13424;48.424;11.258;2024-02-21T14:06:23;1.55;;;0.73;;
25525;SDS011;13424;48.424;11.258;2024-02-21T14:08:49;2.15;;;1.00;;
25525;SDS011;13424;48.424;11.258;2024-02-21T14:11:15;0.70;;;0.65;;
25525;SDS011;13424;48.424;11.258;2024-02-21T14:13:41;1.70;;;0.65;;
25525;SDS011;13424;48.424;11.258;2024-02-21T14:16:10;0.68;;;0.65;;
25525;SDS011;13424;48.424;11.258;2024-02-21T14:21:08;0.73;;;0.50;;
25525;SDS011;13424;48.424;11.258;2024-02-21T14:23:38;0.73;;;0.68;;
25525;SDS011;13424;48.424;11.258;2024-02-21T14:26:07;1.48;;;0.68;;
25525;SDS011;13424;48.424;11.258;2024-02-21T14:28:33;1.65;;;1.08;;
25525;SDS011;13424;48.424;11.258;2024-02-21T14:31:00;2.17;;;0.40;;
25525;SDS011;13424;48.424;11.258;2024-02-21T14:33:27;2.00;;;0.60;;
25525;SDS011;13424;48.424;11.258;2024-02-21T14:35:53;1.40;;;0.50;;
25525;SDS011;13424;48.424;11.258;2024-02-21T14:38:19;0.38;;;0.38;;
25525;SDS011;13424;48.424;11.258;2024-02-21T14:40:45;1.98;;;0.70;;
25525;SDS011;13424;48.424;11.258;2024-02-21T14:43:11;1.42;;;0.60;;
25525;SDS011;13424;48.424;11.258;2024-02-21T14:45:37;0.63;;;0.63;;
25525;SDS011;13424;48.424;11.258;2024-02-21T14:48:05;1.00;;;0.77;;
25525;SDS011;13424;48.424;11.258;2024-02-21T14:50:32;3.28;;;0.85;;
25525;SDS011;13424;48.424;11.258;2024-02-21T14:52:58;1.17;;;0.80;;
25525;SDS011;13424;48.424;11.258;2024-02-21T14:55:34;0.60;;;0.50;;
25525;SDS011;13424;48.424;11.258;2024-02-21T14:58:00;1.52;;;1.08;;
25525;SDS011;13424;48.424;11.258;2024-02-21T15:00:27;1.00;;;0.70;;
25525;SDS011;13424;48.424;11.258;2024-02-21T15:02:59;0.75;;;0.75;;
25525;SDS011;13424;48.424;11.258;2024-02-21T15:05:25;1.17;;;0.68;;
25525;SDS011;13424;48.424;11.258;2024-02-21T15:07:52;0.63;;;0.60;;
25525;SDS011;13424;48.424;11.258;2024-02-21T15:10:18;2.85;;;0.70;;
25525;SDS011;13424;48.424;11.258;2024-02-21T15:12:45;0.77;;;0.60;;